Time;durP1;ratioP1;P1;durP2;ratioP2;P2;SDS_P1;SDS_P2;PMS_P1;PMS_P2;Temp;Humidity;BMP_temperature;BMP_pressure;BME280_temperature;BME280_humidity;BME280_pressure;Samples;Min_cycle;Max_cycle;Signal;HPM_P1;HPM_P2
2021/12/24 06:00:48;;;;;;;1999.90;999.90;;;;;;;;;;6003021;22;20250;-71
2021/12/24 06:03:33;;;;;;;1999.90;999.90;;;;;;;;;;5049025;28;20224;-71
2021/12/24 06:06:18;;;;;;;1999.90;999.90;;;;;;;;;;5047588;28;20212;-71
2021/12/24 06:09:03;;;;;;;1999.90;999.90;;;;;;;;;;5053494;28;20212;-71
2021/12/24 06:11:48;;;;;;;1999.90;999.90;;;;;;;;;;5046994;28;20284;-71
2021/12/24 06:14:33;;;;;;;1999.90;999.90;;;;;;;;;;5048699;28;20694;-71
2021/12/24 06:17:22;;;;;;;1999.90;999.90;;;;;;;;;;5043585;28;20248;-71
2021/12/24 06:20:08;;;;;;;1999.90;999.90;;;;;;;;;;5040321;28;20695;-71
2021/12/24 06:22:53;;;;;;;1999.90;999.90;;;;;;;;;;5051890;28;20216;-71
2021/12/24 06:25:38;;;;;;;1999.90;999.90;;;;;;;;;;5046675;28;20213;-71
2021/12/24 06:28:23;;;;;;;1999.90;999.90;;;;;;;;;;5047345;28;20439;-71
2021/12/24 06:31:08;;;;;;;1999.90;999.90;;;;;;;;;;5045221;28;20241;-71
2021/12/24 06:33:55;;;;;;;1999.90;999.90;;;;;;;;;;5042479;28;20216;-70
2021/12/24 06:36:42;;;;;;;1999.90;999.90;;;;;;;;;;5042554;28;20603;-71
2021/12/24 06:39:27;;;;;;;1999.90;999.90;;;;;;;;;;5045293;28;20233;-71
2021/12/24 06:42:13;;;;;;;1999.90;999.90;;;;;;;;;;5047502;28;20595;-70
2021/12/24 06:44:59;;;;;;;1999.90;999.90;;;;;;;;;;5045375;28;20791;-71
2021/12/24 06:47:45;;;;;;;1999.90;999.90;;;;;;;;;;5052182;28;20328;-71
2021/12/24 06:50:32;;;;;;;1999.90;999.90;;;;;;;;;;5052796;28;20218;-71
2021/12/24 06:53:17;;;;;;;1999.90;999.90;;;;;;;;;;5038282;28;20226;-72
2021/12/24 06:56:02;;;;;;;1999.90;999.90;;;;;;;;;;5037453;28;20754;-71
2021/12/24 06:58:47;;;;;;;1999.90;999.90;;;;;;;;;;5038617;28;20228;-72
2021/12/24 07:01:33;;;;;;;1999.90;999.90;;;;;;;;;;5040758;28;20252;-72
2021/12/24 07:04:17;;;;;;;1999.90;999.90;;;;;;;;;;5047050;28;20209;-70
2021/12/24 07:07:04;;;;;;;1999.90;999.90;;;;;;;;;;5052577;28;20221;-72
2021/12/24 07:09:49;;;;;;;1999.90;999.90;;;;;;;;;;5037449;28;20256;-70
2021/12/24 07:12:35;;;;;;;1999.90;999.90;;;;;;;;;;5053401;28;20641;-72
2021/12/24 07:15:20;;;;;;;1999.90;999.90;;;;;;;;;;5050640;28;20234;-71
2021/12/24 07:18:05;;;;;;;1999.90;999.90;;;;;;;;;;5037422;28;20224;-72
2021/12/24 07:20:50;;;;;;;1999.90;999.90;;;;;;;;;;5038667;28;20600;-69
2021/12/24 07:23:36;;;;;;;1999.90;999.90;;;;;;;;;;5048494;28;20221;-72
2021/12/24 07:26:22;;;;;;;1999.90;999.90;;;;;;;;;;5033324;28;20257;-70
2021/12/24 07:29:07;;;;;;;1999.90;999.90;;;;;;;;;;5037300;28;20213;-71
2021/12/24 07:31:52;;;;;;;1999.90;999.90;;;;;;;;;;5033207;28;20225;-72
2021/12/24 07:34:36;;;;;;;1999.90;999.90;;;;;;;;;;5033560;28;20245;-72
2021/12/24 07:37:21;;;;;;;1999.90;999.90;;;;;;;;;;5034526;28;20265;-72
2021/12/24 07:40:09;;;;;;;1999.90;999.90;;;;;;;;;;5045573;28;20603;-72
2021/12/24 07:42:55;;;;;;;1999.90;999.90;;;;;;;;;;5042722;28;20208;-72
2021/12/24 07:45:42;;;;;;;1999.90;999.90;;;;;;;;;;5035534;28;20692;-72
2021/12/24 07:48:32;;;;;;;1999.90;999.90;;;;;;;;;;5043167;28;20216;-73
2021/12/24 07:54:20;;;;;;;1999.90;999.90;;;;;;;;;;5040312;28;20397;-70
2021/12/24 07:57:08;;;;;;;1999.90;999.90;;;;;;;;;;5042284;28;20345;-72
2021/12/24 07:59:53;;;;;;;1999.90;999.90;;;;;;;;;;5051306;28;20228;-69
2021/12/24 08:02:38;;;;;;;1999.90;999.90;;;;;;;;;;5051426;28;20314;-71
2021/12/24 08:05:25;;;;;;;1999.90;999.90;;;;;;;;;;5051370;28;20275;-72
2021/12/24 08:08:11;;;;;;;1999.90;999.90;;;;;;;;;;5047314;28;20677;-72
2021/12/24 08:10:56;;;;;;;1999.90;999.90;;;;;;;;;;5045528;28;20225;-71
2021/12/24 08:13:43;;;;;;;1999.90;999.90;;;;;;;;;;5039391;28;20277;-72
2021/12/24 08:16:28;;;;;;;1999.90;999.90;;;;;;;;;;5048226;28;20201;-70
2021/12/24 08:19:16;;;;;;;1999.90;999.90;;;;;;;;;;5043233;28;20220;-72
2021/12/24 08:22:01;;;;;;;1999.90;999.90;;;;;;;;;;5033923;28;21227;-72
2021/12/24 08:24:46;;;;;;;1999.90;999.90;;;;;;;;;;5048974;28;20212;-72
2021/12/24 08:27:30;;;;;;;1999.90;999.90;;;;;;;;;;5032614;28;20585;-72
2021/12/24 08:30:17;;;;;;;1999.90;999.90;;;;;;;;;;5032845;28;20209;-72
2021/12/24 08:33:02;;;;;;;1999.90;999.90;;;;;;;;;;5040717;28;20213;-71
2021/12/24 08:35:47;;;;;;;1999.90;999.90;;;;;;;;;;5048983;28;20985;-72
2021/12/24 08:38:32;;;;;;;1999.90;999.90;;;;;;;;;;5042109;28;20318;-72
2021/12/24 08:41:17;;;;;;;1999.90;999.90;;;;;;;;;;5041128;28;20705;-71
2021/12/24 08:44:03;;;;;;;1999.90;999.90;;;;;;;;;;5041668;28;20209;-72
2021/12/24 08:46:49;;;;;;;1999.90;999.90;;;;;;;;;;5032784;28;20751;-72
2021/12/24 08:49:34;;;;;;;1999.90;999.90;;;;;;;;;;5045327;28;20205;-72
2021/12/24 08:52:19;;;;;;;1999.90;999.90;;;;;;;;;;5051095;28;20233;-72
2021/12/24 08:55:04;;;;;;;1999.90;999.90;;;;;;;;;;5044772;28;20214;-71
2021/12/24 08:57:49;;;;;;;1999.90;999.90;;;;;;;;;;5038534;28;20761;-73
2021/12/24 09:00:35;;;;;;;1999.90;999.90;;;;;;;;;;5042234;28;20710;-73
2021/12/24 09:03:21;;;;;;;1999.90;999.90;;;;;;;;;;5042282;28;20743;-73
2021/12/24 09:06:06;;;;;;;1999.90;999.90;;;;;;;;;;5040187;28;20287;-72
2021/12/24 09:08:51;;;;;;;1999.90;999.90;;;;;;;;;;5040693;28;20321;-72
2021/12/24 09:11:36;;;;;;;1999.90;999.90;;;;;;;;;;5047507;28;20228;-73
2021/12/24 09:14:21;;;;;;;1999.90;999.90;;;;;;;;;;5037224;28;20309;-71
2021/12/24 09:17:06;;;;;;;1999.90;999.90;;;;;;;;;;5037644;28;20292;-71
2021/12/24 09:19:54;;;;;;;1999.90;999.90;;;;;;;;;;5039654;28;20430;-71
2021/12/24 09:22:40;;;;;;;1999.90;999.90;;;;;;;;;;5050869;28;20283;-71
2021/12/24 09:25:25;;;;;;;1999.90;999.90;;;;;;;;;;5040054;28;20228;-71
2021/12/24 09:28:10;;;;;;;1999.90;999.90;;;;;;;;;;5040405;28;20212;-71
2021/12/24 09:30:55;;;;;;;1999.90;999.90;;;;;;;;;;5044668;28;20225;-71
2021/12/24 09:33:40;;;;;;;1999.90;999.90;;;;;;;;;;5041957;28;20263;-71
2021/12/24 09:36:28;;;;;;;1999.90;999.90;;;;;;;;;;5038245;28;20292;-73
2021/12/24 09:39:14;;;;;;;1999.90;999.90;;;;;;;;;;5046114;28;20812;-72
2021/12/24 09:41:59;;;;;;;1999.90;999.90;;;;;;;;;;5042809;28;20352;-72
2021/12/24 09:44:44;;;;;;;1999.90;999.90;;;;;;;;;;5036599;28;20226;-72
2021/12/24 09:47:29;;;;;;;1999.90;999.90;;;;;;;;;;5045123;28;20496;-73
2021/12/24 09:50:15;;;;;;;1999.90;999.90;;;;;;;;;;5044724;28;20217;-72
2021/12/24 09:53:02;;;;;;;1999.90;999.90;;;;;;;;;;5044985;28;20266;-72
2021/12/24 09:55:47;;;;;;;1999.90;999.90;;;;;;;;;;5037890;28;20205;-72
2021/12/24 09:58:32;;;;;;;1999.90;999.90;;;;;;;;;;5037132;28;20222;-72
2021/12/24 10:01:36;;;;;;;1999.90;999.90;;;;;;;;;;5044528;28;20264;-72
2021/12/24 10:04:21;;;;;;;1999.90;999.90;;;;;;;;;;5049000;28;20212;-71
2021/12/24 10:07:07;;;;;;;1999.90;999.90;;;;;;;;;;5036594;28;20332;-72
2021/12/24 10:10:05;;;;;;;1999.90;999.90;;;;;;;;;;5041609;28;20305;-72
2021/12/24 10:12:50;;;;;;;1999.90;999.90;;;;;;;;;;5046654;28;20334;-72
2021/12/24 10:15:50;;;;;;;1999.90;999.90;;;;;;;;;;5035755;28;20708;-70
2021/12/24 10:18:37;;;;;;;1999.90;999.90;;;;;;;;;;5041192;28;20331;-72
2021/12/24 10:21:24;;;;;;;1999.90;999.90;;;;;;;;;;5045100;28;20306;-72
2021/12/24 10:24:13;;;;;;;1999.90;999.90;;;;;;;;;;5038239;28;20218;-72
2021/12/24 10:27:00;;;;;;;1999.90;999.90;;;;;;;;;;5050044;28;20706;-71
2021/12/24 10:29:45;;;;;;;1999.90;999.90;;;;;;;;;;5039641;28;20214;-70
2021/12/24 10:32:30;;;;;;;1999.90;999.90;;;;;;;;;;5044897;28;20364;-71
2021/12/24 10:35:19;;;;;;;1999.90;999.90;;;;;;;;;;5039555;28;20205;-71
2021/12/24 10:38:10;;;;;;;1999.90;999.90;;;;;;;;;;5038878;28;20214;-70
2021/12/24 10:40:57;;;;;;;1999.90;999.90;;;;;;;;;;5035746;28;20292;-72
2021/12/24 10:43:43;;;;;;;1999.90;999.90;;;;;;;;;;5042941;28;20604;-71
2021/12/24 10:46:28;;;;;;;1999.90;999.90;;;;;;;;;;5038666;28;20205;-72
2021/12/24 10:49:24;;;;;;;1999.90;999.90;;;;;;;;;;5045268;28;20212;-73
2021/12/24 10:52:14;;;;;;;1999.90;999.90;;;;;;;;;;5042830;28;20312;-73
2021/12/24 10:55:00;;;;;;;1999.90;999.90;;;;;;;;;;5046999;28;20258;-71
2021/12/24 10:57:47;;;;;;;1999.90;999.90;;;;;;;;;;5037855;28;20217;-73
2021/12/24 11:00:37;;;;;;;1999.90;999.90;;;;;;;;;;5045215;28;20578;-73
2021/12/24 11:03:24;;;;;;;1999.90;999.90;;;;;;;;;;5023931;28;20225;-73
2021/12/24 11:06:09;;;;;;;1999.90;999.90;;;;;;;;;;5029157;28;20202;-72
2021/12/24 11:08:55;;;;;;;1999.90;999.90;;;;;;;;;;5022228;28;20796;-71
2021/12/24 11:11:45;;;;;;;1999.90;999.90;;;;;;;;;;5013613;28;20538;-71
2021/12/24 11:14:31;;;;;;;1999.90;999.90;;;;;;;;;;5026341;28;20590;-72
2021/12/24 11:17:37;;;;;;;1999.90;999.90;;;;;;;;;;5026481;28;20670;-72
2021/12/24 11:20:22;;;;;;;1999.90;999.90;;;;;;;;;;5021744;28;20230;-72
2021/12/24 11:23:09;;;;;;;1999.90;999.90;;;;;;;;;;5025908;28;20210;-72
2021/12/24 11:25:55;;;;;;;1999.90;999.90;;;;;;;;;;5034314;28;20209;-72
2021/12/24 11:28:41;;;;;;;1999.90;999.90;;;;;;;;;;5026248;28;20206;-71
2021/12/24 11:31:28;;;;;;;1999.90;999.90;;;;;;;;;;5022159;28;20229;-70
2021/12/24 11:34:14;;;;;;;1999.90;999.90;;;;;;;;;;5014400;28;20206;-73
2021/12/24 11:36:59;;;;;;;1999.90;999.90;;;;;;;;;;5025140;28;20237;-72
2021/12/24 11:39:45;;;;;;;1999.90;999.90;;;;;;;;;;5023359;28;20395;-72
2021/12/24 11:42:33;;;;;;;1999.90;999.90;;;;;;;;;;5021368;28;20234;-72
2021/12/24 11:45:19;;;;;;;1999.90;999.90;;;;;;;;;;5017768;28;20207;-72
2021/12/24 11:48:06;;;;;;;1999.90;999.90;;;;;;;;;;5019545;28;20288;-72
2021/12/24 11:50:52;;;;;;;1999.90;999.90;;;;;;;;;;5022602;28;20249;-71
2021/12/24 11:53:38;;;;;;;1999.90;999.90;;;;;;;;;;5017963;28;20233;-72
2021/12/24 11:56:23;;;;;;;1999.90;999.90;;;;;;;;;;5023405;28;20218;-74
2021/12/24 11:59:09;;;;;;;1999.90;999.90;;;;;;;;;;5025250;28;20209;-71
2021/12/24 12:01:54;;;;;;;1999.90;999.90;;;;;;;;;;5032693;28;20289;-72
2021/12/24 12:04:38;;;;;;;1999.90;999.90;;;;;;;;;;5036213;28;20243;-72
2021/12/24 12:07:25;;;;;;;1999.90;999.90;;;;;;;;;;5041769;28;20209;-71
2021/12/24 12:10:10;;;;;;;1999.90;999.90;;;;;;;;;;5046651;28;20409;-71
2021/12/24 12:12:55;;;;;;;1999.90;999.90;;;;;;;;;;5046778;28;20210;-70
2021/12/24 12:15:56;;;;;;;1999.90;999.90;;;;;;;;;;5040705;28;20208;-71
2021/12/24 12:18:47;;;;;;;1999.90;999.90;;;;;;;;;;5043910;28;20260;-71
2021/12/24 12:21:38;;;;;;;1999.90;999.90;;;;;;;;;;5041036;28;20258;-71
2021/12/24 12:27:44;;;;;;;1999.90;999.90;;;;;;;;;;5032551;28;20210;-71
2021/12/24 12:30:30;;;;;;;1999.90;999.90;;;;;;;;;;5040903;28;20213;-70
2021/12/24 12:33:16;;;;;;;1999.90;999.90;;;;;;;;;;5038992;28;20333;-71
2021/12/24 12:36:02;;;;;;;1999.90;999.90;;;;;;;;;;5041506;28;20429;-72
2021/12/24 12:38:47;;;;;;;1999.90;999.90;;;;;;;;;;5040709;28;20335;-72
2021/12/24 12:41:35;;;;;;;1999.90;999.90;;;;;;;;;;5043645;28;20727;-71
2021/12/24 12:44:20;;;;;;;1999.90;999.90;;;;;;;;;;5046503;28;20711;-72
2021/12/24 12:47:09;;;;;;;1999.90;999.90;;;;;;;;;;5044862;28;20221;-72
2021/12/24 12:50:09;;;;;;;1999.90;999.90;;;;;;;;;;5041307;28;20704;-71
2021/12/24 12:53:22;;;;;;;1999.90;999.90;;;;;;;;;;5046726;28;20373;-71
2021/12/24 12:56:16;;;;;;;1999.90;999.90;;;;;;;;;;5039347;28;20204;-72
2021/12/24 12:59:07;;;;;;;1999.90;999.90;;;;;;;;;;5039371;28;20716;-71
2021/12/24 13:01:53;;;;;;;1999.90;999.90;;;;;;;;;;5047851;28;20233;-71
2021/12/24 13:04:38;;;;;;;1999.90;999.90;;;;;;;;;;5038428;28;20200;-71
2021/12/24 13:07:23;;;;;;;1999.90;999.90;;;;;;;;;;5041394;28;20761;-72
2021/12/24 13:10:09;;;;;;;1999.90;999.90;;;;;;;;;;5034034;28;20691;-71
2021/12/24 13:12:59;;;;;;;1999.90;999.90;;;;;;;;;;5034376;28;20213;-73
2021/12/24 13:15:46;;;;;;;1999.90;999.90;;;;;;;;;;5033607;28;20280;-71
2021/12/24 13:18:34;;;;;;;1999.90;999.90;;;;;;;;;;5051753;28;20196;-72
2021/12/24 13:24:21;;;;;;;1999.90;999.90;;;;;;;;;;5051899;28;20197;-71
2021/12/24 13:27:06;;;;;;;1999.90;999.90;;;;;;;;;;5051983;28;20264;-73
2021/12/24 13:30:04;;;;;;;1999.90;999.90;;;;;;;;;;5051753;28;20209;-73
2021/12/24 13:32:51;;;;;;;1999.90;999.90;;;;;;;;;;5051855;28;20769;-74
2021/12/24 13:35:38;;;;;;;1999.90;999.90;;;;;;;;;;5052029;28;20212;-73
2021/12/24 13:38:26;;;;;;;1999.90;999.90;;;;;;;;;;5051429;28;20275;-73
2021/12/24 13:41:12;;;;;;;1999.90;999.90;;;;;;;;;;5051270;28;20252;-73
2021/12/24 13:43:58;;;;;;;1999.90;999.90;;;;;;;;;;5051551;28;20205;-70
2021/12/24 13:46:44;;;;;;;1999.90;999.90;;;;;;;;;;5035303;28;20293;-73
2021/12/24 13:55:39;;;;;;;1999.90;999.90;;;;;;;;;;5031698;28;20332;-72
2021/12/24 13:58:24;;;;;;;1999.90;999.90;;;;;;;;;;5037167;28;20230;-70
2021/12/24 14:01:09;;;;;;;1999.90;999.90;;;;;;;;;;5037482;28;20479;-72
2021/12/24 14:03:54;;;;;;;1999.90;999.90;;;;;;;;;;5033243;28;20202;-73
2021/12/24 14:06:42;;;;;;;1999.90;999.90;;;;;;;;;;5032016;28;20217;-74
2021/12/24 14:09:30;;;;;;;1999.90;999.90;;;;;;;;;;5035030;28;20214;-72
2021/12/24 14:12:14;;;;;;;1999.90;999.90;;;;;;;;;;5031287;28;20221;-72
2021/12/24 14:15:10;;;;;;;1999.90;999.90;;;;;;;;;;5031747;28;20213;-72
2021/12/24 14:18:18;;;;;;;1999.90;999.90;;;;;;;;;;5039813;28;20574;-72
2021/12/24 14:24:10;;;;;;;1999.90;999.90;;;;;;;;;;5031566;28;20210;-73
2021/12/24 14:26:56;;;;;;;1999.90;999.90;;;;;;;;;;5045700;28;20256;-71
2021/12/24 14:29:43;;;;;;;1999.90;999.90;;;;;;;;;;5039046;28;20214;-70
2021/12/24 14:32:29;;;;;;;1999.90;999.90;;;;;;;;;;5049684;28;20292;-71
2021/12/24 14:35:16;;;;;;;1999.90;999.90;;;;;;;;;;5055151;28;20687;-71
2021/12/24 14:38:03;;;;;;;1999.90;999.90;;;;;;;;;;5043842;28;20274;-70
2021/12/24 14:40:55;;;;;;;1999.90;999.90;;;;;;;;;;5036661;28;20345;-70
2021/12/24 14:43:40;;;;;;;1999.90;999.90;;;;;;;;;;5054935;28;20250;-71
2021/12/24 14:46:25;;;;;;;1999.90;999.90;;;;;;;;;;5047724;28;20210;-72
2021/12/24 14:49:10;;;;;;;1999.90;999.90;;;;;;;;;;5043811;28;20212;-73
2021/12/24 14:52:13;;;;;;;1999.90;999.90;;;;;;;;;;5038812;28;20226;-71
2021/12/24 14:55:16;;;;;;;1999.90;999.90;;;;;;;;;;5034856;28;20205;-71
2021/12/24 14:58:02;;;;;;;1999.90;999.90;;;;;;;;;;5044280;28;20414;-72
2021/12/24 15:00:48;;;;;;;1999.90;999.90;;;;;;;;;;5043633;28;20249;-72
2021/12/24 15:03:34;;;;;;;1999.90;999.90;;;;;;;;;;5042341;28;20252;-72
2021/12/24 15:06:20;;;;;;;1999.90;999.90;;;;;;;;;;5041409;28;20220;-72
2021/12/24 15:09:21;;;;;;;1999.90;999.90;;;;;;;;;;5042399;28;20325;-73
2021/12/24 15:12:15;;;;;;;1999.90;999.90;;;;;;;;;;5037713;28;20597;-71
2021/12/24 15:15:01;;;;;;;1999.90;999.90;;;;;;;;;;5043376;28;20213;-71
2021/12/24 15:17:47;;;;;;;1999.90;999.90;;;;;;;;;;5050468;28;20629;-69
2021/12/24 15:20:33;;;;;;;1999.90;999.90;;;;;;;;;;5041348;28;20675;-72
2021/12/24 15:23:18;;;;;;;1999.90;999.90;;;;;;;;;;5047288;28;20592;-73
2021/12/24 15:26:03;;;;;;;1999.90;999.90;;;;;;;;;;5037575;28;20200;-73
2021/12/24 15:28:50;;;;;;;1999.90;999.90;;;;;;;;;;5044511;28;20214;-72
2021/12/24 15:31:37;;;;;;;1999.90;999.90;;;;;;;;;;5049329;28;20225;-72
2021/12/24 15:34:23;;;;;;;1999.90;999.90;;;;;;;;;;5039494;28;20328;-72
2021/12/24 15:37:08;;;;;;;1999.90;999.90;;;;;;;;;;5041325;28;20573;-70
2021/12/24 15:39:53;;;;;;;1999.90;999.90;;;;;;;;;;5049885;28;20209;-72
2021/12/24 15:42:38;;;;;;;1999.90;999.90;;;;;;;;;;5041390;28;20315;-70
2021/12/24 15:45:25;;;;;;;1999.90;999.90;;;;;;;;;;5039574;28;20280;-71
2021/12/24 15:48:11;;;;;;;1999.90;999.90;;;;;;;;;;5033416;28;20687;-72
2021/12/24 15:50:57;;;;;;;1999.90;999.90;;;;;;;;;;5036278;28;20229;-71
2021/12/24 15:53:42;;;;;;;1999.90;999.90;;;;;;;;;;5053697;28;20706;-70
2021/12/24 15:56:27;;;;;;;1999.90;999.90;;;;;;;;;;5038162;28;20244;-70
2021/12/24 15:59:12;;;;;;;1999.90;999.90;;;;;;;;;;5039787;28;20212;-70
2021/12/24 16:01:57;;;;;;;1999.90;999.90;;;;;;;;;;5042177;28;20239;-71
2021/12/24 16:04:43;;;;;;;1999.90;999.90;;;;;;;;;;5049437;28;20216;-70
2021/12/24 16:07:29;;;;;;;1999.90;999.90;;;;;;;;;;5053635;28;20204;-70
2021/12/24 16:10:15;;;;;;;1999.90;999.90;;;;;;;;;;5052494;28;20216;-70
2021/12/24 16:13:00;;;;;;;1999.90;999.90;;;;;;;;;;5043526;28;20335;-69
2021/12/24 16:15:47;;;;;;;1999.90;999.90;;;;;;;;;;5053447;28;20665;-70
2021/12/24 16:18:32;;;;;;;1999.90;999.90;;;;;;;;;;5052643;28;20289;-70
2021/12/24 16:21:19;;;;;;;1999.90;999.90;;;;;;;;;;5043778;28;20346;-70
2021/12/24 16:24:04;;;;;;;1999.90;999.90;;;;;;;;;;5035229;28;20280;-69
2021/12/24 16:26:49;;;;;;;1999.90;999.90;;;;;;;;;;5041291;28;20212;-70
2021/12/24 16:29:48;;;;;;;1999.90;999.90;;;;;;;;;;5032724;28;20205;-71
2021/12/24 16:32:34;;;;;;;1999.90;999.90;;;;;;;;;;5048957;28;20706;-70
2021/12/24 16:35:21;;;;;;;1999.90;999.90;;;;;;;;;;5053099;28;20204;-70
2021/12/24 16:38:08;;;;;;;1999.90;999.90;;;;;;;;;;5052417;28;20303;-68
2021/12/24 16:40:54;;;;;;;1999.90;999.90;;;;;;;;;;5043366;28;20236;-70
2021/12/24 16:43:39;;;;;;;1999.90;999.90;;;;;;;;;;5040707;28;20784;-69
2021/12/24 16:46:24;;;;;;;1999.90;999.90;;;;;;;;;;5036420;28;20240;-70
2021/12/24 16:49:09;;;;;;;1999.90;999.90;;;;;;;;;;5039459;28;20209;-71
2021/12/24 16:51:53;;;;;;;1999.90;999.90;;;;;;;;;;5034997;28;20229;-70
2021/12/24 16:54:40;;;;;;;1999.90;999.90;;;;;;;;;;5040732;28;20406;-70
2021/12/24 16:57:25;;;;;;;1999.90;999.90;;;;;;;;;;5032591;28;20595;-70
2021/12/24 17:00:11;;;;;;;1999.90;999.90;;;;;;;;;;5049092;28;20246;-68
2021/12/24 17:02:57;;;;;;;1999.90;999.90;;;;;;;;;;5049954;28;20299;-70
2021/12/24 17:05:41;;;;;;;1999.90;999.90;;;;;;;;;;5032368;28;20233;-70
2021/12/24 17:08:26;;;;;;;1999.90;999.90;;;;;;;;;;5031913;28;20272;-69
2021/12/24 17:11:13;;;;;;;1999.90;999.90;;;;;;;;;;5032307;28;20275;-69
2021/12/24 17:13:57;;;;;;;1999.90;999.90;;;;;;;;;;5032128;28;20260;-69
2021/12/24 17:16:42;;;;;;;1999.90;999.90;;;;;;;;;;5032172;28;20213;-69
2021/12/24 17:19:27;;;;;;;1999.90;999.90;;;;;;;;;;5031816;28;20216;-69
2021/12/24 17:22:12;;;;;;;1999.90;999.90;;;;;;;;;;5035007;28;20366;-70
2021/12/24 17:24:58;;;;;;;1999.90;999.90;;;;;;;;;;5037176;28;20223;-69
2021/12/24 17:27:45;;;;;;;1999.90;999.90;;;;;;;;;;5039852;28;20208;-68
2021/12/24 17:30:30;;;;;;;1999.90;999.90;;;;;;;;;;5040827;28;20268;-69
2021/12/24 17:33:16;;;;;;;1999.90;999.90;;;;;;;;;;5044686;28;20315;-69
2021/12/24 17:36:01;;;;;;;1999.90;999.90;;;;;;;;;;5051540;28;20207;-69
2021/12/24 17:38:46;;;;;;;1999.90;999.90;;;;;;;;;;5051595;28;20213;-69
2021/12/24 17:41:31;;;;;;;1999.90;999.90;;;;;;;;;;5051364;28;20537;-69
2021/12/24 17:44:17;;;;;;;1999.90;999.90;;;;;;;;;;5051752;28;20215;-70
2021/12/24 17:47:04;;;;;;;1999.90;999.90;;;;;;;;;;5051406;28;20220;-70
2021/12/24 17:49:49;;;;;;;1999.90;999.90;;;;;;;;;;5039682;28;20204;-69
2021/12/24 17:52:34;;;;;;;1999.90;999.90;;;;;;;;;;5031773;28;20581;-70
2021/12/24 17:55:19;;;;;;;1999.90;999.90;;;;;;;;;;5031528;28;20280;-69
2021/12/24 17:58:04;;;;;;;1999.90;999.90;;;;;;;;;;5033370;28;20200;-70
2021/12/24 18:00:51;;;;;;;1999.90;999.90;;;;;;;;;;5046418;28;20375;-70
2021/12/24 18:03:36;;;;;;;1999.90;999.90;;;;;;;;;;5047485;28;20247;-69
2021/12/24 18:06:21;;;;;;;1999.90;999.90;;;;;;;;;;5044209;28;20220;-70
2021/12/24 18:09:06;;;;;;;1999.90;999.90;;;;;;;;;;5045244;28;20338;-70
2021/12/24 18:11:51;;;;;;;1999.90;999.90;;;;;;;;;;5039584;28;20744;-70
2021/12/24 18:14:38;;;;;;;1999.90;999.90;;;;;;;;;;5043808;28;20730;-70
2021/12/24 18:17:24;;;;;;;1999.90;999.90;;;;;;;;;;5039333;28;20294;-70
2021/12/24 18:20:11;;;;;;;1999.90;999.90;;;;;;;;;;5045774;28;20548;-70
2021/12/24 18:22:57;;;;;;;1999.90;999.90;;;;;;;;;;5055151;28;20232;-69
2021/12/24 18:25:42;;;;;;;1999.90;999.90;;;;;;;;;;5055338;28;20679;-68
2021/12/24 18:28:27;;;;;;;1999.90;999.90;;;;;;;;;;5045102;28;20713;-70
2021/12/24 18:31:12;;;;;;;1999.90;999.90;;;;;;;;;;5035194;28;20232;-70
2021/12/24 18:33:58;;;;;;;1999.90;999.90;;;;;;;;;;5045958;28;20216;-70
2021/12/24 18:36:43;;;;;;;1999.90;999.90;;;;;;;;;;5042949;28;20286;-69
2021/12/24 18:39:28;;;;;;;1999.90;999.90;;;;;;;;;;5046209;28;20710;-68
2021/12/24 18:42:13;;;;;;;1999.90;999.90;;;;;;;;;;5038692;28;20224;-69
2021/12/24 18:44:58;;;;;;;1999.90;999.90;;;;;;;;;;5054975;28;20584;-69
2021/12/24 18:47:44;;;;;;;1999.90;999.90;;;;;;;;;;5034695;28;20749;-69
2021/12/24 18:50:30;;;;;;;1999.90;999.90;;;;;;;;;;5036415;28;20592;-70
2021/12/24 18:53:15;;;;;;;1999.90;999.90;;;;;;;;;;5043040;28;20576;-69
2021/12/24 18:56:00;;;;;;;1999.90;999.90;;;;;;;;;;5035014;28;20213;-70
2021/12/24 18:58:47;;;;;;;1999.90;999.90;;;;;;;;;;5046545;28;20218;-69
2021/12/24 19:01:32;;;;;;;1999.90;999.90;;;;;;;;;;5036345;28;20243;-70
2021/12/24 19:04:17;;;;;;;1999.90;999.90;;;;;;;;;;5047112;28;20215;-71
2021/12/24 19:07:03;;;;;;;1999.90;999.90;;;;;;;;;;5043083;28;20222;-70
2021/12/24 19:09:48;;;;;;;1999.90;999.90;;;;;;;;;;5036740;28;20211;-69
2021/12/24 19:12:34;;;;;;;1999.90;999.90;;;;;;;;;;5038852;28;20232;-69
2021/12/24 19:15:21;;;;;;;1999.90;999.90;;;;;;;;;;5042296;28;20220;-69
2021/12/24 19:18:06;;;;;;;1999.90;999.90;;;;;;;;;;5032964;28;20792;-70
2021/12/24 19:20:53;;;;;;;1999.90;999.90;;;;;;;;;;5036942;28;20231;-69
2021/12/24 19:23:39;;;;;;;1999.90;999.90;;;;;;;;;;5054196;28;20238;-70
2021/12/24 19:26:24;;;;;;;1999.90;999.90;;;;;;;;;;5054077;28;20339;-69
2021/12/24 19:29:09;;;;;;;1999.90;999.90;;;;;;;;;;5053793;28;20333;-68
2021/12/24 19:31:55;;;;;;;1999.90;999.90;;;;;;;;;;5053980;28;20223;-69
2021/12/24 19:34:39;;;;;;;1999.90;999.90;;;;;;;;;;5054102;28;20207;-69
2021/12/24 19:37:25;;;;;;;1999.90;999.90;;;;;;;;;;5039565;28;20219;-68
2021/12/24 19:40:12;;;;;;;1999.90;999.90;;;;;;;;;;5043864;28;20214;-68
2021/12/24 19:42:57;;;;;;;1999.90;999.90;;;;;;;;;;5049290;28;20214;-69
2021/12/24 19:45:42;;;;;;;1999.90;999.90;;;;;;;;;;5044834;28;20412;-69
2021/12/24 19:48:27;;;;;;;1999.90;999.90;;;;;;;;;;5037163;28;20205;-68
2021/12/24 19:51:12;;;;;;;1999.90;999.90;;;;;;;;;;5037865;28;20228;-69
2021/12/24 19:53:57;;;;;;;1999.90;999.90;;;;;;;;;;5041762;28;20339;-67
2021/12/24 19:56:44;;;;;;;1999.90;999.90;;;;;;;;;;5033569;28;20210;-69
2021/12/24 19:59:30;;;;;;;1999.90;999.90;;;;;;;;;;5033227;28;20205;-67
2021/12/24 20:02:15;;;;;;;1999.90;999.90;;;;;;;;;;5039072;28;20254;-68
2021/12/24 20:05:00;;;;;;;1999.90;999.90;;;;;;;;;;5053258;28;20261;-69
2021/12/24 20:07:45;;;;;;;1999.90;999.90;;;;;;;;;;5052080;28;20216;-67
2021/12/24 20:10:30;;;;;;;1999.90;999.90;;;;;;;;;;5044538;28;20305;-69
2021/12/24 20:13:16;;;;;;;1999.90;999.90;;;;;;;;;;5053426;28;20207;-68
2021/12/24 20:16:01;;;;;;;1999.90;999.90;;;;;;;;;;5049906;28;20590;-70
2021/12/24 20:18:46;;;;;;;1999.90;999.90;;;;;;;;;;5049558;28;20283;-70
2021/12/24 20:21:30;;;;;;;1999.90;999.90;;;;;;;;;;5053232;28;20313;-66
2021/12/24 20:24:15;;;;;;;1999.90;999.90;;;;;;;;;;5052791;28;20573;-69
2021/12/24 20:27:00;;;;;;;1999.90;999.90;;;;;;;;;;5053310;28;20210;-68
2021/12/24 20:29:46;;;;;;;1999.90;999.90;;;;;;;;;;5051333;28;20288;-69
2021/12/24 20:32:31;;;;;;;1999.90;999.90;;;;;;;;;;5044619;28;20227;-68
2021/12/24 20:35:16;;;;;;;1999.90;999.90;;;;;;;;;;5041186;28;20311;-68
2021/12/24 20:38:02;;;;;;;1999.90;999.90;;;;;;;;;;5032636;28;20306;-69
2021/12/24 20:40:47;;;;;;;1999.90;999.90;;;;;;;;;;5036632;28;20579;-69
2021/12/24 20:43:32;;;;;;;1999.90;999.90;;;;;;;;;;5044200;28;20219;-69
2021/12/24 20:46:18;;;;;;;1999.90;999.90;;;;;;;;;;5038573;28;20261;-68
2021/12/24 20:49:03;;;;;;;1999.90;999.90;;;;;;;;;;5037267;28;20208;-68
2021/12/24 20:51:48;;;;;;;1999.90;999.90;;;;;;;;;;5043588;28;20278;-69
2021/12/24 20:54:33;;;;;;;1999.90;999.90;;;;;;;;;;5032468;28;20229;-69
2021/12/24 20:57:18;;;;;;;1999.90;999.90;;;;;;;;;;5040191;28;20343;-68
2021/12/24 21:00:04;;;;;;;1999.90;999.90;;;;;;;;;;5033666;28;20208;-68
2021/12/24 21:02:50;;;;;;;1999.90;999.90;;;;;;;;;;5049507;28;20305;-69
2021/12/24 21:05:35;;;;;;;1999.90;999.90;;;;;;;;;;5044739;28;20228;-69
2021/12/24 21:08:21;;;;;;;1999.90;999.90;;;;;;;;;;5037850;28;20424;-68
2021/12/24 21:11:06;;;;;;;1999.90;999.90;;;;;;;;;;5032716;28;20235;-69
2021/12/24 21:13:50;;;;;;;1999.90;999.90;;;;;;;;;;5049998;28;20202;-69
2021/12/24 21:16:36;;;;;;;1999.90;999.90;;;;;;;;;;5049995;28;20216;-71
2021/12/24 21:19:22;;;;;;;1999.90;999.90;;;;;;;;;;5031559;28;20612;-70
2021/12/24 21:22:11;;;;;;;1999.90;999.90;;;;;;;;;;5032076;28;20243;-69
2021/12/24 21:24:57;;;;;;;1999.90;999.90;;;;;;;;;;5032114;28;20694;-70
2021/12/24 21:27:42;;;;;;;1999.90;999.90;;;;;;;;;;5041963;28;20212;-67
2021/12/24 21:30:27;;;;;;;1999.90;999.90;;;;;;;;;;5040728;28;20710;-69
2021/12/24 21:33:12;;;;;;;1999.90;999.90;;;;;;;;;;5039138;28;20205;-70
2021/12/24 21:35:58;;;;;;;1999.90;999.90;;;;;;;;;;5031475;28;20214;-69
2021/12/24 21:38:43;;;;;;;1999.90;999.90;;;;;;;;;;5031899;28;20635;-69
2021/12/24 21:41:28;;;;;;;1999.90;999.90;;;;;;;;;;5032037;28;20773;-70
2021/12/24 21:44:14;;;;;;;1999.90;999.90;;;;;;;;;;5031942;28;20217;-70
2021/12/24 21:46:58;;;;;;;1999.90;999.90;;;;;;;;;;5032190;28;20217;-70